Rysy — C6ZA3 — position and weather

sailwx.info

Track history (hours):
 
Tides and Currents Weather Stations Pressure Air Temp Water Temp Dewpoint Dewpoint Depression Visibility Wind Speed Wind Dir Waves Ship Positions

Rysy

Last reported at 2016-May-02 09:18 UTC. Time now 2016-May-04 04:12 UTC.
Position N 41°01' E 028°60'.

Length 229 m; draft 6.9 m.

Type: Cargo ship. MMSI: 311051200.

Date/timePositionNaut miles runAvg speedWind from/ knotsBaromVisibWave heightAir tempDewpointWater temp
2016-May-02 09:18N 41°01' E 028°60'6 7.7
2016-May-02 08:33N 40°56' E 028°58'14 2.7
2016-May-02 03:25N 40°46' E 028°46'231 8.9
2016-May-01 01:33N 37°38' E 025°52'1211.9
2016-May-01 00:33N 37°26' E 025°54'1311.8
2016-Apr-30 23:29N 37°14' E 026°01'1111.9
2016-Apr-30 22:33N 37°04' E 026°07'1211.6
2016-Apr-30 21:33N 36°55' E 026°16'1211.5
2016-Apr-30 20:32N 36°47' E 026°27'18311.3
2016-Apr-30 04:24N 35°48' E 030°01'  
Track history (hours):
 
Tides and Currents Weather Stations Pressure Air Temp Water Temp Dewpoint Dewpoint Depression Visibility Wind Speed Wind Dir Waves Ship Positions

Rysy

Last reported at 2016-May-02 09:18 UTC. Time now 2016-May-04 04:12 UTC.
Position N 41°01' E 028°60'.

Length 229 m; draft 6.9 m.

Type: Cargo ship. MMSI: 311051200.

Date/timePositionNaut miles runAvg speedWind from/ knotsBaromVisibWave heightAir tempDewpointWater temp
2016-May-02 09:18N 41°01' E 028°60'6 7.7
2016-May-02 08:33N 40°56' E 028°58'14 2.7
2016-May-02 03:25N 40°46' E 028°46'231 8.9
2016-May-01 01:33N 37°38' E 025°52'1211.9
2016-May-01 00:33N 37°26' E 025°54'1311.8
2016-Apr-30 23:29N 37°14' E 026°01'1111.9
2016-Apr-30 22:33N 37°04' E 026°07'1211.6
2016-Apr-30 21:33N 36°55' E 026°16'1211.5
2016-Apr-30 20:32N 36°47' E 026°27'18311.3
2016-Apr-30 04:24N 35°48' E 030°01'  

Dump ship's entire track history